sensor_id;sensor_type;location;lat;lon;timestamp;temperature;humidity
65598;SHT31;52267;51.984;20.956;2023-04-15T00:00:10;10.73;75.13
65598;SHT31;52267;51.984;20.956;2023-04-15T00:02:57;10.70;75.06
65598;SHT31;52267;51.984;20.956;2023-04-15T00:05:24;10.69;75.33
65598;SHT31;52267;51.984;20.956;2023-04-15T00:07:52;10.66;75.39
65598;SHT31;52267;51.984;20.956;2023-04-15T00:10:19;10.66;75.41
65598;SHT31;52267;51.984;20.956;2023-04-15T00:12:46;10.66;75.39
65598;SHT31;52267;51.984;20.956;2023-04-15T00:15:13;10.65;75.44
65598;SHT31;52267;51.984;20.956;2023-04-15T00:17:40;10.62;75.65
65598;SHT31;52267;51.984;20.956;2023-04-15T00:20:07;10.57;76.31
65598;SHT31;52267;51.984;20.956;2023-04-15T00:22:35;10.54;76.17
65598;SHT31;52267;51.984;20.956;2023-04-15T00:25:02;10.53;76.27
65598;SHT31;52267;51.984;20.956;2023-04-15T00:27:30;10.50;76.18
65598;SHT31;52267;51.984;20.956;2023-04-15T00:29:57;10.47;76.64
65598;SHT31;52267;51.984;20.956;2023-04-15T00:32:24;10.44;77.13
65598;SHT31;52267;51.984;20.956;2023-04-15T00:34:51;10.40;77.26
65598;SHT31;52267;51.984;20.956;2023-04-15T00:37:18;10.34;77.46
65598;SHT31;52267;51.984;20.956;2023-04-15T00:39:45;10.32;77.14
65598;SHT31;52267;51.984;20.956;2023-04-15T00:42:12;10.29;77.81
65598;SHT31;52267;51.984;20.956;2023-04-15T00:44:40;10.25;78.23
65598;SHT31;52267;51.984;20.956;2023-04-15T00:47:08;10.19;78.77
65598;SHT31;52267;51.984;20.956;2023-04-15T00:49:35;10.11;79.90
65598;SHT31;52267;51.984;20.956;2023-04-15T00:52:02;10.06;79.81
65598;SHT31;52267;51.984;20.956;2023-04-15T00:54:29;10.03;79.86
65598;SHT31;52267;51.984;20.956;2023-04-15T00:56:57;10.02;79.51
65598;SHT31;52267;51.984;20.956;2023-04-15T00:59:24;10.00;79.75
65598;SHT31;52267;51.984;20.956;2023-04-15T01:01:52;9.97;79.79
65598;SHT31;52267;51.984;20.956;2023-04-15T01:04:19;9.95;79.77
65598;SHT31;52267;51.984;20.956;2023-04-15T01:06:46;9.97;79.51
65598;SHT31;52267;51.984;20.956;2023-04-15T01:09:13;9.97;79.68
65598;SHT31;52267;51.984;20.956;2023-04-15T01:11:40;9.92;80.13
65598;SHT31;52267;51.984;20.956;2023-04-15T01:14:08;9.90;79.84
65598;SHT31;52267;51.984;20.956;2023-04-15T01:16:36;9.86;81.24
65598;SHT31;52267;51.984;20.956;2023-04-15T01:19:07;9.79;80.90
65598;SHT31;52267;51.984;20.956;2023-04-15T01:21:38;9.77;81.12
65598;SHT31;52267;51.984;20.956;2023-04-15T01:24:08;9.75;80.87
65598;SHT31;52267;51.984;20.956;2023-04-15T01:26:39;9.74;81.07
65598;SHT31;52267;51.984;20.956;2023-04-15T01:29:07;9.69;81.75
65598;SHT31;52267;51.984;20.956;2023-04-15T01:31:34;9.63;82.23
65598;SHT31;52267;51.984;20.956;2023-04-15T01:34:01;9.61;81.45
65598;SHT31;52267;51.984;20.956;2023-04-15T01:36:28;9.54;82.71
65598;SHT31;52267;51.984;20.956;2023-04-15T01:38:56;9.45;83.35
65598;SHT31;52267;51.984;20.956;2023-04-15T01:41:26;9.44;83.14
65598;SHT31;52267;51.984;20.956;2023-04-15T01:43:54;9.41;83.46
65598;SHT31;52267;51.984;20.956;2023-04-15T01:46:21;9.38;83.21
65598;SHT31;52267;51.984;20.956;2023-04-15T01:48:48;9.36;82.99
65598;SHT31;52267;51.984;20.956;2023-04-15T01:51:16;9.34;83.80
65598;SHT31;52267;51.984;20.956;2023-04-15T01:53:43;9.30;84.71
65598;SHT31;52267;51.984;20.956;2023-04-15T01:56:10;9.26;85.03
65598;SHT31;52267;51.984;20.956;2023-04-15T01:58:37;9.23;84.67
65598;SHT31;52267;51.984;20.956;2023-04-15T02:01:05;9.22;84.84
65598;SHT31;52267;51.984;20.956;2023-04-15T02:03:33;9.20;85.12
65598;SHT31;52267;51.984;20.956;2023-04-15T02:06:00;9.19;85.41
65598;SHT31;52267;51.984;20.956;2023-04-15T02:08:27;9.17;85.91
65598;SHT31;52267;51.984;20.956;2023-04-15T02:10:55;9.17;85.78
65598;SHT31;52267;51.984;20.956;2023-04-15T02:13:22;9.16;85.65
65598;SHT31;52267;51.984;20.956;2023-04-15T02:15:49;9.17;85.42
65598;SHT31;52267;51.984;20.956;2023-04-15T02:18:17;9.14;85.83
65598;SHT31;52267;51.984;20.956;2023-04-15T02:20:44;9.11;86.45
65598;SHT31;52267;51.984;20.956;2023-04-15T02:23:12;9.13;85.99
65598;SHT31;52267;51.984;20.956;2023-04-15T02:25:39;9.13;86.52
65598;SHT31;52267;51.984;20.956;2023-04-15T02:28:06;9.12;86.59
65598;SHT31;52267;51.984;20.956;2023-04-15T02:30:33;9.09;87.20
65598;SHT31;52267;51.984;20.956;2023-04-15T02:33:00;9.09;86.44
65598;SHT31;52267;51.984;20.956;2023-04-15T02:35:28;9.11;86.09
65598;SHT31;52267;51.984;20.956;2023-04-15T02:37:55;9.12;85.62
65598;SHT31;52267;51.984;20.956;2023-04-15T02:40:22;9.13;85.70
65598;SHT31;52267;51.984;20.956;2023-04-15T02:42:49;9.13;86.10
65598;SHT31;52267;51.984;20.956;2023-04-15T02:45:16;9.11;86.63
65598;SHT31;52267;51.984;20.956;2023-04-15T02:47:45;9.09;86.78
65598;SHT31;52267;51.984;20.956;2023-04-15T02:50:13;9.08;86.75
65598;SHT31;52267;51.984;20.956;2023-04-15T02:52:41;9.08;86.57
65598;SHT31;52267;51.984;20.956;2023-04-15T02:55:08;9.09;86.41
65598;SHT31;52267;51.984;20.956;2023-04-15T02:57:36;9.11;86.59
65598;SHT31;52267;51.984;20.956;2023-04-15T03:00:04;9.11;86.53
65598;SHT31;52267;51.984;20.956;2023-04-15T03:02:35;9.14;86.23
65598;SHT31;52267;51.984;20.956;2023-04-15T03:05:04;9.14;86.17
65598;SHT31;52267;51.984;20.956;2023-04-15T03:07:32;9.15;86.29
65598;SHT31;52267;51.984;20.956;2023-04-15T03:09:59;9.15;86.40
65598;SHT31;52267;51.984;20.956;2023-04-15T03:12:26;9.14;86.66
65598;SHT31;52267;51.984;20.956;2023-04-15T03:14:53;9.13;87.09
65598;SHT31;52267;51.984;20.956;2023-04-15T03:17:21;9.12;87.77
65598;SHT31;52267;51.984;20.956;2023-04-15T03:19:48;9.13;87.03
65598;SHT31;52267;51.984;20.956;2023-04-15T03:22:15;9.14;87.08
65598;SHT31;52267;51.984;20.956;2023-04-15T03:24:41;9.14;87.36
65598;SHT31;52267;51.984;20.956;2023-04-15T03:27:08;9.13;88.16
65598;SHT31;52267;51.984;20.956;2023-04-15T03:29:35;9.12;87.75
65598;SHT31;52267;51.984;20.956;2023-04-15T03:32:02;9.13;87.42
65598;SHT31;52267;51.984;20.956;2023-04-15T03:34:30;9.12;87.53
65598;SHT31;52267;51.984;20.956;2023-04-15T03:36:57;9.13;87.67
65598;SHT31;52267;51.984;20.956;2023-04-15T03:39:24;9.13;87.66
65598;SHT31;52267;51.984;20.956;2023-04-15T03:41:51;9.14;87.40
65598;SHT31;52267;51.984;20.956;2023-04-15T03:44:18;9.15;87.36
65598;SHT31;52267;51.984;20.956;2023-04-15T03:46:45;9.15;87.72
65598;SHT31;52267;51.984;20.956;2023-04-15T03:49:12;9.14;87.77
65598;SHT31;52267;51.984;20.956;2023-04-15T03:51:39;9.14;87.61
65598;SHT31;52267;51.984;20.956;2023-04-15T03:54:07;9.15;87.38
65598;SHT31;52267;51.984;20.956;2023-04-15T03:56:33;9.15;87.55
65598;SHT31;52267;51.984;20.956;2023-04-15T03:59:00;9.16;87.56
65598;SHT31;52267;51.984;20.956;2023-04-15T04:01:27;9.16;87.77
65598;SHT31;52267;51.984;20.956;2023-04-15T04:03:54;9.14;87.98
65598;SHT31;52267;51.984;20.956;2023-04-15T04:06:24;9.15;87.51
65598;SHT31;52267;51.984;20.956;2023-04-15T04:08:51;9.14;87.83
65598;SHT31;52267;51.984;20.956;2023-04-15T04:11:18;9.17;87.47
65598;SHT31;52267;51.984;20.956;2023-04-15T04:13:46;9.19;87.57
65598;SHT31;52267;51.984;20.956;2023-04-15T04:16:13;9.17;87.72
65598;SHT31;52267;51.984;20.956;2023-04-15T04:18:40;9.17;87.95
65598;SHT31;52267;51.984;20.956;2023-04-15T04:21:08;9.19;88.04
65598;SHT31;52267;51.984;20.956;2023-04-15T04:23:35;9.18;87.89
65598;SHT31;52267;51.984;20.956;2023-04-15T04:26:02;9.18;87.91
65598;SHT31;52267;51.984;20.956;2023-04-15T04:28:29;9.18;88.34
65598;SHT31;52267;51.984;20.956;2023-04-15T04:30:56;9.19;88.07
65598;SHT31;52267;51.984;20.956;2023-04-15T04:33:24;9.20;88.00
65598;SHT31;52267;51.984;20.956;2023-04-15T04:35:51;9.19;88.31
65598;SHT31;52267;51.984;20.956;2023-04-15T04:38:18;9.22;88.12
65598;SHT31;52267;51.984;20.956;2023-04-15T04:40:45;9.20;88.42
65598;SHT31;52267;51.984;20.956;2023-04-15T04:43:12;9.20;88.38
65598;SHT31;52267;51.984;20.956;2023-04-15T04:45:40;9.21;88.27
65598;SHT31;52267;51.984;20.956;2023-04-15T04:48:07;9.23;88.06
65598;SHT31;52267;51.984;20.956;2023-04-15T04:50:35;9.26;87.79
65598;SHT31;52267;51.984;20.956;2023-04-15T04:53:02;9.26;87.72
65598;SHT31;52267;51.984;20.956;2023-04-15T04:55:29;9.29;87.59
65598;SHT31;52267;51.984;20.956;2023-04-15T04:57:57;9.29;87.67
65598;SHT31;52267;51.984;20.956;2023-04-15T05:00:26;9.28;88.52
65598;SHT31;52267;51.984;20.956;2023-04-15T05:02:53;9.26;88.95
65598;SHT31;52267;51.984;20.956;2023-04-15T05:05:20;9.27;88.43
65598;SHT31;52267;51.984;20.956;2023-04-15T05:07:47;9.26;88.43
65598;SHT31;52267;51.984;20.956;2023-04-15T05:10:15;9.26;88.41
65598;SHT31;52267;51.984;20.956;2023-04-15T05:12:43;9.27;88.88
65598;SHT31;52267;51.984;20.956;2023-04-15T05:15:10;9.26;88.52
65598;SHT31;52267;51.984;20.956;2023-04-15T05:17:37;9.30;88.52
65598;SHT31;52267;51.984;20.956;2023-04-15T05:20:04;9.31;88.32
65598;SHT31;52267;51.984;20.956;2023-04-15T05:22:32;9.32;88.46
65598;SHT31;52267;51.984;20.956;2023-04-15T05:24:59;9.33;88.57
65598;SHT31;52267;51.984;20.956;2023-04-15T05:27:26;9.32;88.45
65598;SHT31;52267;51.984;20.956;2023-04-15T05:29:53;9.33;88.52
65598;SHT31;52267;51.984;20.956;2023-04-15T05:32:21;9.31;89.00
65598;SHT31;52267;51.984;20.956;2023-04-15T05:34:49;9.30;89.18
65598;SHT31;52267;51.984;20.956;2023-04-15T05:37:16;9.30;88.97
65598;SHT31;52267;51.984;20.956;2023-04-15T05:39:46;9.30;88.65
65598;SHT31;52267;51.984;20.956;2023-04-15T05:42:13;9.32;88.85
65598;SHT31;52267;51.984;20.956;2023-04-15T05:44:41;9.31;89.29
65598;SHT31;52267;51.984;20.956;2023-04-15T05:47:08;9.30;89.70
65598;SHT31;52267;51.984;20.956;2023-04-15T05:49:36;9.29;89.52
65598;SHT31;52267;51.984;20.956;2023-04-15T05:52:03;9.31;89.15
65598;SHT31;52267;51.984;20.956;2023-04-15T05:54:31;9.35;88.80
65598;SHT31;52267;51.984;20.956;2023-04-15T05:56:58;9.35;89.21
65598;SHT31;52267;51.984;20.956;2023-04-15T05:59:25;9.35;88.87
65598;SHT31;52267;51.984;20.956;2023-04-15T06:01:52;9.35;89.10
65598;SHT31;52267;51.984;20.956;2023-04-15T06:04:19;9.33;89.35
65598;SHT31;52267;51.984;20.956;2023-04-15T06:06:47;9.33;89.62
65598;SHT31;52267;51.984;20.956;2023-04-15T06:09:14;9.35;89.27
65598;SHT31;52267;51.984;20.956;2023-04-15T06:11:41;9.35;89.08
65598;SHT31;52267;51.984;20.956;2023-04-15T06:14:08;9.36;89.11
65598;SHT31;52267;51.984;20.956;2023-04-15T06:16:35;9.37;89.03
65598;SHT31;52267;51.984;20.956;2023-04-15T06:19:02;9.35;89.63
65598;SHT31;52267;51.984;20.956;2023-04-15T06:21:29;9.36;89.42
65598;SHT31;52267;51.984;20.956;2023-04-15T06:23:58;9.37;89.47
65598;SHT31;52267;51.984;20.956;2023-04-15T06:26:26;9.36;89.66
65598;SHT31;52267;51.984;20.956;2023-04-15T06:28:54;9.35;89.53
65598;SHT31;52267;51.984;20.956;2023-04-15T06:31:21;9.37;89.54
65598;SHT31;52267;51.984;20.956;2023-04-15T06:33:48;9.36;89.65
65598;SHT31;52267;51.984;20.956;2023-04-15T06:36:15;9.38;89.34
65598;SHT31;52267;51.984;20.956;2023-04-15T06:38:45;9.38;89.66
65598;SHT31;52267;51.984;20.956;2023-04-15T06:41:12;9.40;89.55
65598;SHT31;52267;51.984;20.956;2023-04-15T06:43:40;9.39;89.29
65598;SHT31;52267;51.984;20.956;2023-04-15T06:46:07;9.42;89.51
65598;SHT31;52267;51.984;20.956;2023-04-15T06:48:34;9.41;89.70
65598;SHT31;52267;51.984;20.956;2023-04-15T06:51:01;9.40;89.63
65598;SHT31;52267;51.984;20.956;2023-04-15T06:53:29;9.42;89.29
65598;SHT31;52267;51.984;20.956;2023-04-15T06:55:56;9.43;89.24
65598;SHT31;52267;51.984;20.956;2023-04-15T06:58:23;9.41;89.62
65598;SHT31;52267;51.984;20.956;2023-04-15T07:00:51;9.40;90.01
65598;SHT31;52267;51.984;20.956;2023-04-15T07:03:18;9.40;89.88
65598;SHT31;52267;51.984;20.956;2023-04-15T07:05:45;9.39;90.19
65598;SHT31;52267;51.984;20.956;2023-04-15T07:08:12;9.41;90.17
65598;SHT31;52267;51.984;20.956;2023-04-15T07:10:40;9.42;90.21
65598;SHT31;52267;51.984;20.956;2023-04-15T07:13:07;9.44;89.99
65598;SHT31;52267;51.984;20.956;2023-04-15T07:15:34;9.47;89.80
65598;SHT31;52267;51.984;20.956;2023-04-15T07:18:01;9.49;89.81
65598;SHT31;52267;51.984;20.956;2023-04-15T07:20:31;9.51;89.97
65598;SHT31;52267;51.984;20.956;2023-04-15T07:22:58;9.49;89.88
65598;SHT31;52267;51.984;20.956;2023-04-15T07:25:25;9.53;89.73
65598;SHT31;52267;51.984;20.956;2023-04-15T07:27:52;9.56;89.66
65598;SHT31;52267;51.984;20.956;2023-04-15T07:30:19;9.57;89.98
65598;SHT31;52267;51.984;20.956;2023-04-15T07:32:46;9.57;89.84
65598;SHT31;52267;51.984;20.956;2023-04-15T07:35:14;9.59;89.56
65598;SHT31;52267;51.984;20.956;2023-04-15T07:37:41;9.61;89.50
65598;SHT31;52267;51.984;20.956;2023-04-15T07:40:08;9.60;89.58
65598;SHT31;52267;51.984;20.956;2023-04-15T07:42:37;9.61;89.62
65598;SHT31;52267;51.984;20.956;2023-04-15T07:45:04;9.64;89.62
65598;SHT31;52267;51.984;20.956;2023-04-15T07:47:32;9.65;89.51
65598;SHT31;52267;51.984;20.956;2023-04-15T07:49:59;9.69;89.26
65598;SHT31;52267;51.984;20.956;2023-04-15T07:52:26;9.69;89.37
65598;SHT31;52267;51.984;20.956;2023-04-15T07:54:53;9.69;89.51
65598;SHT31;52267;51.984;20.956;2023-04-15T07:57:21;9.70;89.25
65598;SHT31;52267;51.984;20.956;2023-04-15T07:59:48;9.71;89.31
65598;SHT31;52267;51.984;20.956;2023-04-15T08:02:15;9.72;89.51
65598;SHT31;52267;51.984;20.956;2023-04-15T08:04:42;9.76;89.43
65598;SHT31;52267;51.984;20.956;2023-04-15T08:07:09;9.78;89.59
65598;SHT31;52267;51.984;20.956;2023-04-15T08:09:36;9.82;89.68
65598;SHT31;52267;51.984;20.956;2023-04-15T08:12:03;9.88;89.32
65598;SHT31;52267;51.984;20.956;2023-04-15T08:14:31;9.93;89.40
65598;SHT31;52267;51.984;20.956;2023-04-15T08:16:58;9.90;89.40
65598;SHT31;52267;51.984;20.956;2023-04-15T08:19:25;9.92;89.34
65598;SHT31;52267;51.984;20.956;2023-04-15T08:21:52;9.97;89.17
65598;SHT31;52267;51.984;20.956;2023-04-15T08:24:19;10.02;89.20
65598;SHT31;52267;51.984;20.956;2023-04-15T08:26:46;10.01;89.52
65598;SHT31;52267;51.984;20.956;2023-04-15T08:29:13;10.06;89.34
65598;SHT31;52267;51.984;20.956;2023-04-15T08:31:40;10.04;89.09
65598;SHT31;52267;51.984;20.956;2023-04-15T08:34:07;10.04;89.10
65598;SHT31;52267;51.984;20.956;2023-04-15T08:36:34;10.05;88.97
65598;SHT31;52267;51.984;20.956;2023-04-15T08:39:01;10.06;89.51
65598;SHT31;52267;51.984;20.956;2023-04-15T08:41:35;10.09;89.41
65598;SHT31;52267;51.984;20.956;2023-04-15T08:44:32;10.15;89.50
65598;SHT31;52267;51.984;20.956;2023-04-15T08:47:01;10.19;89.33
65598;SHT31;52267;51.984;20.956;2023-04-15T08:49:31;10.25;89.25
65598;SHT31;52267;51.984;20.956;2023-04-15T08:51:58;10.23;89.19
65598;SHT31;52267;51.984;20.956;2023-04-15T08:54:26;10.19;89.40
65598;SHT31;52267;51.984;20.956;2023-04-15T08:56:53;10.25;89.17
65598;SHT31;52267;51.984;20.956;2023-04-15T08:59:23;10.22;89.63
65598;SHT31;52267;51.984;20.956;2023-04-15T09:01:50;10.23;89.66
65598;SHT31;52267;51.984;20.956;2023-04-15T09:04:17;10.27;89.55
65598;SHT31;52267;51.984;20.956;2023-04-15T09:06:44;10.31;89.46
65598;SHT31;52267;51.984;20.956;2023-04-15T09:09:12;10.35;89.40
65598;SHT31;52267;51.984;20.956;2023-04-15T09:11:42;10.40;89.23
65598;SHT31;52267;51.984;20.956;2023-04-15T09:14:09;10.42;89.31
65598;SHT31;52267;51.984;20.956;2023-04-15T09:19:26;10.54;89.04
65598;SHT31;52267;51.984;20.956;2023-04-15T09:21:54;10.60;89.09
65598;SHT31;52267;51.984;20.956;2023-04-15T09:24:24;10.62;89.01
65598;SHT31;52267;51.984;20.956;2023-04-15T09:27:02;10.64;89.10
65598;SHT31;52267;51.984;20.956;2023-04-15T09:29:30;10.66;89.26
65598;SHT31;52267;51.984;20.956;2023-04-15T09:32:13;10.67;89.22
65598;SHT31;52267;51.984;20.956;2023-04-15T09:34:41;10.68;89.29
65598;SHT31;52267;51.984;20.956;2023-04-15T09:37:10;10.69;89.05
65598;SHT31;52267;51.984;20.956;2023-04-15T09:39:45;10.72;89.04
65598;SHT31;52267;51.984;20.956;2023-04-15T09:42:17;10.77;89.06
65598;SHT31;52267;51.984;20.956;2023-04-15T09:44:54;10.81;89.19
65598;SHT31;52267;51.984;20.956;2023-04-15T09:47:28;10.84;89.10
65598;SHT31;52267;51.984;20.956;2023-04-15T09:49:57;10.88;88.91
65598;SHT31;52267;51.984;20.956;2023-04-15T09:52:25;10.91;89.01
65598;SHT31;52267;51.984;20.956;2023-04-15T09:54:54;10.88;89.21
65598;SHT31;52267;51.984;20.956;2023-04-15T09:57:23;10.90;88.82
65598;SHT31;52267;51.984;20.956;2023-04-15T09:59:50;10.95;88.83
65598;SHT31;52267;51.984;20.956;2023-04-15T10:02:18;10.97;88.76
65598;SHT31;52267;51.984;20.956;2023-04-15T10:04:48;10.96;88.81
65598;SHT31;52267;51.984;20.956;2023-04-15T10:07:17;10.92;88.68
65598;SHT31;52267;51.984;20.956;2023-04-15T10:09:47;10.94;88.59
65598;SHT31;52267;51.984;20.956;2023-04-15T10:12:15;10.97;88.64
65598;SHT31;52267;51.984;20.956;2023-04-15T10:14:43;11.00;88.47
65598;SHT31;52267;51.984;20.956;2023-04-15T10:17:15;11.01;88.43
65598;SHT31;52267;51.984;20.956;2023-04-15T10:19:44;11.05;88.60
65598;SHT31;52267;51.984;20.956;2023-04-15T10:22:13;11.11;88.73
65598;SHT31;52267;51.984;20.956;2023-04-15T10:24:40;11.19;88.48
65598;SHT31;52267;51.984;20.956;2023-04-15T10:27:08;11.24;88.80
65598;SHT31;52267;51.984;20.956;2023-04-15T10:29:36;11.30;88.48
65598;SHT31;52267;51.984;20.956;2023-04-15T10:32:06;11.36;88.49
65598;SHT31;52267;51.984;20.956;2023-04-15T10:34:35;11.41;88.47
65598;SHT31;52267;51.984;20.956;2023-04-15T10:37:08;11.53;88.22
65598;SHT31;52267;51.984;20.956;2023-04-15T10:39:39;11.60;88.13
65598;SHT31;52267;51.984;20.956;2023-04-15T10:44:43;11.68;87.95
65598;SHT31;52267;51.984;20.956;2023-04-15T10:47:15;11.66;87.82
65598;SHT31;52267;51.984;20.956;2023-04-15T10:49:47;11.63;87.31
65598;SHT31;52267;51.984;20.956;2023-04-15T10:52:25;11.61;87.43
65598;SHT31;52267;51.984;20.956;2023-04-15T10:57:53;11.60;87.41
65598;SHT31;52267;51.984;20.956;2023-04-15T11:00:24;11.65;87.47
65598;SHT31;52267;51.984;20.956;2023-04-15T11:02:55;11.69;87.13
65598;SHT31;52267;51.984;20.956;2023-04-15T11:08:08;11.59;87.46
65598;SHT31;52267;51.984;20.956;2023-04-15T11:13:24;11.38;86.91
65598;SHT31;52267;51.984;20.956;2023-04-15T11:15:54;11.37;86.90
65598;SHT31;52267;51.984;20.956;2023-04-15T11:18:24;11.50;86.77
65598;SHT31;52267;51.984;20.956;2023-04-15T11:20:55;11.53;86.36
65598;SHT31;52267;51.984;20.956;2023-04-15T11:23:38;11.55;85.77
65598;SHT31;52267;51.984;20.956;2023-04-15T11:26:12;11.67;86.10
65598;SHT31;52267;51.984;20.956;2023-04-15T11:28:43;11.70;85.14
65598;SHT31;52267;51.984;20.956;2023-04-15T11:31:15;11.77;85.45
65598;SHT31;52267;51.984;20.956;2023-04-15T11:34:04;11.89;85.57
65598;SHT31;52267;51.984;20.956;2023-04-15T11:36:31;12.02;85.38
65598;SHT31;52267;51.984;20.956;2023-04-15T11:38:58;12.16;85.34
65598;SHT31;52267;51.984;20.956;2023-04-15T11:41:27;12.21;84.86
65598;SHT31;52267;51.984;20.956;2023-04-15T11:43:54;12.30;85.16
65598;SHT31;52267;51.984;20.956;2023-04-15T11:46:27;12.33;85.08
65598;SHT31;52267;51.984;20.956;2023-04-15T11:48:56;12.29;84.55
65598;SHT31;52267;51.984;20.956;2023-04-15T11:51:23;12.20;83.67
65598;SHT31;52267;51.984;20.956;2023-04-15T11:53:50;12.10;82.50
65598;SHT31;52267;51.984;20.956;2023-04-15T11:56:24;12.13;83.25
65598;SHT31;52267;51.984;20.956;2023-04-15T11:58:56;12.20;83.34
65598;SHT31;52267;51.984;20.956;2023-04-15T12:01:31;12.18;82.45
65598;SHT31;52267;51.984;20.956;2023-04-15T12:04:14;12.31;83.27
65598;SHT31;52267;51.984;20.956;2023-04-15T12:06:48;12.42;83.32
65598;SHT31;52267;51.984;20.956;2023-04-15T12:09:15;12.55;82.92
65598;SHT31;52267;51.984;20.956;2023-04-15T12:11:49;12.63;83.33
65598;SHT31;52267;51.984;20.956;2023-04-15T12:14:23;12.65;82.55
65598;SHT31;52267;51.984;20.956;2023-04-15T12:16:59;12.64;81.42
65598;SHT31;52267;51.984;20.956;2023-04-15T12:19:29;12.75;81.29
65598;SHT31;52267;51.984;20.956;2023-04-15T12:22:05;12.86;80.76
65598;SHT31;52267;51.984;20.956;2023-04-15T12:24:38;12.93;79.54
65598;SHT31;52267;51.984;20.956;2023-04-15T12:27:10;13.14;79.85
65598;SHT31;52267;51.984;20.956;2023-04-15T12:29:39;13.31;78.71
65598;SHT31;52267;51.984;20.956;2023-04-15T12:32:09;13.43;77.61
65598;SHT31;52267;51.984;20.956;2023-04-15T12:34:42;13.54;76.98
65598;SHT31;52267;51.984;20.956;2023-04-15T12:37:16;13.59;75.76
65598;SHT31;52267;51.984;20.956;2023-04-15T12:39:44;13.64;76.90
65598;SHT31;52267;51.984;20.956;2023-04-15T12:42:14;13.63;76.21
65598;SHT31;52267;51.984;20.956;2023-04-15T12:44:42;13.73;76.80
65598;SHT31;52267;51.984;20.956;2023-04-15T12:47:10;13.85;76.95
65598;SHT31;52267;51.984;20.956;2023-04-15T12:49:37;14.00;76.53
65598;SHT31;52267;51.984;20.956;2023-04-15T12:52:05;14.01;76.09
65598;SHT31;52267;51.984;20.956;2023-04-15T12:54:32;13.92;75.52
65598;SHT31;52267;51.984;20.956;2023-04-15T12:57:00;13.85;75.97
65598;SHT31;52267;51.984;20.956;2023-04-15T12:59:28;13.86;76.20
65598;SHT31;52267;51.984;20.956;2023-04-15T13:01:55;13.89;75.73
65598;SHT31;52267;51.984;20.956;2023-04-15T13:04:23;13.83;75.39
65598;SHT31;52267;51.984;20.956;2023-04-15T13:06:50;13.74;75.01
65598;SHT31;52267;51.984;20.956;2023-04-15T13:09:17;13.64;75.39
65598;SHT31;52267;51.984;20.956;2023-04-15T13:11:44;13.54;75.16
65598;SHT31;52267;51.984;20.956;2023-04-15T13:14:11;13.48;75.51
65598;SHT31;52267;51.984;20.956;2023-04-15T13:16:38;13.37;75.32
65598;SHT31;52267;51.984;20.956;2023-04-15T13:19:06;13.32;75.86
65598;SHT31;52267;51.984;20.956;2023-04-15T13:21:33;13.23;75.54
65598;SHT31;52267;51.984;20.956;2023-04-15T13:24:01;13.05;75.66
65598;SHT31;52267;51.984;20.956;2023-04-15T13:26:28;12.92;75.60
65598;SHT31;52267;51.984;20.956;2023-04-15T13:28:55;12.78;75.97
65598;SHT31;52267;51.984;20.956;2023-04-15T13:31:22;12.70;75.97
65598;SHT31;52267;51.984;20.956;2023-04-15T13:33:49;12.73;76.24
65598;SHT31;52267;51.984;20.956;2023-04-15T13:36:16;12.85;76.42
65598;SHT31;52267;51.984;20.956;2023-04-15T13:38:43;12.96;76.46
65598;SHT31;52267;51.984;20.956;2023-04-15T13:41:10;13.04;76.53
65598;SHT31;52267;51.984;20.956;2023-04-15T13:43:37;13.13;76.38
65598;SHT31;52267;51.984;20.956;2023-04-15T13:46:04;13.21;76.39
65598;SHT31;52267;51.984;20.956;2023-04-15T13:48:32;13.34;76.10
65598;SHT31;52267;51.984;20.956;2023-04-15T13:50:59;13.51;75.78
65598;SHT31;52267;51.984;20.956;2023-04-15T13:53:26;13.64;74.95
65598;SHT31;52267;51.984;20.956;2023-04-15T13:55:55;13.76;74.53
65598;SHT31;52267;51.984;20.956;2023-04-15T13:58:22;14.00;73.52
65598;SHT31;52267;51.984;20.956;2023-04-15T14:00:49;13.97;73.18
65598;SHT31;52267;51.984;20.956;2023-04-15T14:03:16;13.99;73.84
65598;SHT31;52267;51.984;20.956;2023-04-15T14:05:43;14.04;74.08
65598;SHT31;52267;51.984;20.956;2023-04-15T14:08:11;14.14;72.87
65598;SHT31;52267;51.984;20.956;2023-04-15T14:10:38;14.04;71.69
65598;SHT31;52267;51.984;20.956;2023-04-15T14:13:05;13.99;72.18
65598;SHT31;52267;51.984;20.956;2023-04-15T14:15:32;14.00;72.14
65598;SHT31;52267;51.984;20.956;2023-04-15T14:17:59;14.19;72.43
65598;SHT31;52267;51.984;20.956;2023-04-15T14:20:27;14.36;71.74
65598;SHT31;52267;51.984;20.956;2023-04-15T14:22:54;14.58;71.41
65598;SHT31;52267;51.984;20.956;2023-04-15T14:25:22;14.67;69.61
65598;SHT31;52267;51.984;20.956;2023-04-15T14:27:49;14.81;69.57
65598;SHT31;52267;51.984;20.956;2023-04-15T14:30:16;15.13;70.16
65598;SHT31;52267;51.984;20.956;2023-04-15T14:32:43;15.33;69.38
65598;SHT31;52267;51.984;20.956;2023-04-15T14:35:10;15.11;70.17
65598;SHT31;52267;51.984;20.956;2023-04-15T14:37:37;15.00;70.51
65598;SHT31;52267;51.984;20.956;2023-04-15T14:40:05;14.87;70.77
65598;SHT31;52267;51.984;20.956;2023-04-15T14:42:33;14.68;70.69
65598;SHT31;52267;51.984;20.956;2023-04-15T14:45:02;14.48;70.68
65598;SHT31;52267;51.984;20.956;2023-04-15T14:47:29;14.33;71.20
65598;SHT31;52267;51.984;20.956;2023-04-15T14:49:57;14.35;71.43
65598;SHT31;52267;51.984;20.956;2023-04-15T14:52:24;14.30;70.72
65598;SHT31;52267;51.984;20.956;2023-04-15T14:54:51;14.22;71.21
65598;SHT31;52267;51.984;20.956;2023-04-15T14:57:18;14.04;70.73
65598;SHT31;52267;51.984;20.956;2023-04-15T14:59:45;13.78;70.61
65598;SHT31;52267;51.984;20.956;2023-04-15T15:02:13;13.63;71.52
65598;SHT31;52267;51.984;20.956;2023-04-15T15:04:40;13.54;71.90
65598;SHT31;52267;51.984;20.956;2023-04-15T15:07:08;13.51;71.95
65598;SHT31;52267;51.984;20.956;2023-04-15T15:09:35;13.53;72.08
65598;SHT31;52267;51.984;20.956;2023-04-15T15:12:02;13.51;71.44
65598;SHT31;52267;51.984;20.956;2023-04-15T15:14:29;13.39;71.31
65598;SHT31;52267;51.984;20.956;2023-04-15T15:16:58;13.39;71.94
65598;SHT31;52267;51.984;20.956;2023-04-15T15:19:26;13.38;72.10
65598;SHT31;52267;51.984;20.956;2023-04-15T15:21:56;13.31;71.74
65598;SHT31;52267;51.984;20.956;2023-04-15T15:24:24;13.22;72.43
65598;SHT31;52267;51.984;20.956;2023-04-15T15:26:51;13.16;72.60
65598;SHT31;52267;51.984;20.956;2023-04-15T15:29:18;13.12;72.66
65598;SHT31;52267;51.984;20.956;2023-04-15T15:31:45;13.01;72.54
65598;SHT31;52267;51.984;20.956;2023-04-15T15:34:12;12.99;72.77
65598;SHT31;52267;51.984;20.956;2023-04-15T15:36:39;13.03;72.78
65598;SHT31;52267;51.984;20.956;2023-04-15T15:39:07;13.01;72.50
65598;SHT31;52267;51.984;20.956;2023-04-15T15:41:34;13.04;72.77